createdAt,value
2023-03-26T00:01:45.999Z,2.97
2023-03-26T00:06:47.506Z,2.75
2023-03-26T00:11:48.979Z,2.17
2023-03-26T00:16:50.476Z,1.90
2023-03-26T00:21:51.948Z,1.98
2023-03-26T00:26:53.638Z,2.00
2023-03-26T00:31:55.146Z,2.63
2023-03-26T00:36:56.610Z,2.78
2023-03-26T00:41:58.073Z,2.17
2023-03-26T00:46:59.517Z,2.67
2023-03-26T00:52:00.929Z,2.65
2023-03-26T00:57:02.517Z,2.95
2023-03-26T01:02:03.998Z,3.05
2023-03-26T01:07:05.471Z,3.10
2023-03-26T01:12:06.924Z,3.10
2023-03-26T01:17:08.399Z,3.45
2023-03-26T01:22:09.851Z,2.97
2023-03-26T01:27:11.315Z,3.00
2023-03-26T01:32:12.765Z,2.80
2023-03-26T01:37:14.227Z,3.15
2023-03-26T01:42:15.713Z,3.53
2023-03-26T01:47:17.145Z,3.38
2023-03-26T01:52:18.607Z,3.25
2023-03-26T01:57:20.091Z,3.20
2023-03-26T02:02:21.696Z,3.25
2023-03-26T02:07:23.266Z,3.30
2023-03-26T02:12:24.701Z,3.10
2023-03-26T02:17:26.185Z,3.20
2023-03-26T02:22:27.622Z,3.10
2023-03-26T02:27:29.084Z,2.70
2023-03-26T02:32:30.543Z,2.47
2023-03-26T02:37:32.031Z,2.85
2023-03-26T02:42:33.509Z,2.70
2023-03-26T02:47:35.036Z,2.53
2023-03-26T02:52:36.580Z,2.20
2023-03-26T02:57:38.025Z,2.63
2023-03-26T03:02:39.539Z,2.50
2023-03-26T03:07:41.077Z,2.50
2023-03-26T03:12:42.620Z,2.50
2023-03-26T03:17:44.116Z,2.60
2023-03-26T03:22:45.583Z,2.88
2023-03-26T03:27:47.027Z,3.00
2023-03-26T03:32:48.506Z,2.97
2023-03-26T03:37:49.963Z,2.78
2023-03-26T03:42:51.436Z,2.30
2023-03-26T03:47:53.049Z,2.00
2023-03-26T03:52:54.508Z,2.13
2023-03-26T03:57:55.939Z,1.83
2023-03-26T04:02:57.628Z,1.60
2023-03-26T04:07:59.191Z,1.40
2023-03-26T04:13:00.626Z,1.55
2023-03-26T04:18:02.102Z,1.30
2023-03-26T04:23:03.556Z,1.50
2023-03-26T04:28:04.993Z,1.23
2023-03-26T04:33:06.610Z,1.38
2023-03-26T04:38:08.169Z,1.00
2023-03-26T04:43:09.627Z,1.10
2023-03-26T04:48:11.099Z,1.30
2023-03-26T04:53:12.536Z,1.17
2023-03-26T04:58:13.987Z,1.08
2023-03-26T05:03:15.515Z,1.30
2023-03-26T05:08:16.984Z,1.10
2023-03-26T05:13:18.676Z,1.20
2023-03-26T05:18:20.134Z,1.67
2023-03-26T05:23:21.564Z,0.98
2023-03-26T05:28:23.031Z,0.95
2023-03-26T05:33:24.575Z,1.00
2023-03-26T05:38:26.106Z,0.90
2023-03-26T05:43:27.559Z,0.90
2023-03-26T05:48:28.978Z,0.90
2023-03-26T05:53:30.442Z,0.90
2023-03-26T05:58:31.863Z,1.30
2023-03-26T06:03:33.423Z,1.27
2023-03-26T06:08:35.038Z,1.50
2023-03-26T06:13:36.500Z,1.70
2023-03-26T06:18:37.980Z,1.90
2023-03-26T06:23:39.474Z,1.65
2023-03-26T06:28:40.944Z,1.90
2023-03-26T06:33:42.374Z,1.70
2023-03-26T06:38:43.835Z,1.90
2023-03-26T06:43:45.302Z,1.40
2023-03-26T06:48:46.762Z,2.00
2023-03-26T06:53:48.351Z,1.27
2023-03-26T06:58:49.814Z,1.17
2023-03-26T07:03:51.321Z,1.40
2023-03-26T07:08:52.804Z,1.10
2023-03-26T07:13:54.294Z,1.38
2023-03-26T07:18:56.524Z,1.30
2023-03-26T07:23:58.388Z,1.13
2023-03-26T07:29:04.546Z,1.30
2023-03-26T07:34:06.674Z,1.58
2023-03-26T07:39:08.155Z,1.30
2023-03-26T07:44:09.889Z,1.63
2023-03-26T07:49:11.485Z,1.60
2023-03-26T07:54:12.926Z,1.40
2023-03-26T07:59:14.535Z,1.10
2023-03-26T08:04:23.107Z,1.40
2023-03-26T08:09:26.116Z,1.50
2023-03-26T08:14:27.578Z,1.60
2023-03-26T08:19:29.043Z,1.58
2023-03-26T08:24:30.514Z,2.00
2023-03-26T08:29:31.988Z,1.90
2023-03-26T08:34:33.447Z,1.60
2023-03-26T08:39:34.929Z,2.28
2023-03-26T08:44:36.424Z,3.17
2023-03-26T08:49:37.874Z,2.03
2023-03-26T08:54:39.309Z,1.77
2023-03-26T08:59:40.773Z,1.60
2023-03-26T09:04:42.325Z,1.17
2023-03-26T09:09:43.760Z,1.30
2023-03-26T09:14:45.178Z,1.40
2023-03-26T09:19:46.653Z,1.48
2023-03-26T09:24:48.092Z,1.40
2023-03-26T09:29:49.524Z,2.47
2023-03-26T09:40:17.133Z,1.75
2023-03-26T09:45:18.697Z,1.67
2023-03-26T09:50:20.150Z,2.00
2023-03-26T09:55:22.036Z,1.83
2023-03-26T10:00:23.472Z,1.80
2023-03-26T10:05:24.926Z,1.90
2023-03-26T10:10:26.413Z,1.60
2023-03-26T10:15:27.903Z,1.30
2023-03-26T10:20:29.338Z,1.27
2023-03-26T10:25:30.805Z,1.38
2023-03-26T10:30:32.273Z,1.30
2023-03-26T10:35:33.809Z,1.55
2023-03-26T10:40:35.360Z,1.35
2023-03-26T10:45:36.841Z,1.20
2023-03-26T10:50:38.283Z,1.80
2023-03-26T10:55:39.704Z,2.13
2023-03-26T11:00:41.140Z,1.83
2023-03-26T11:05:42.677Z,1.92
2023-03-26T11:10:44.151Z,2.13
2023-03-26T11:15:45.592Z,2.40
2023-03-26T11:20:47.077Z,1.83
2023-03-26T11:25:48.531Z,1.67
2023-03-26T11:30:49.952Z,2.30
2023-03-26T11:35:51.497Z,1.92
2023-03-26T11:40:53.442Z,2.00
2023-03-26T11:45:55.293Z,2.10
2023-03-26T11:50:56.964Z,2.35
2023-03-26T11:55:58.667Z,2.95
2023-03-26T12:01:00.135Z,2.10
2023-03-26T12:06:01.644Z,1.80
2023-03-26T12:11:03.169Z,2.05
2023-03-26T12:16:04.705Z,1.90
2023-03-26T12:21:08.717Z,1.58
2023-03-26T12:26:10.658Z,1.20
2023-03-26T12:31:12.269Z,1.20
2023-03-26T12:36:13.994Z,1.60
2023-03-26T12:44:42.802Z,1.60
2023-03-26T12:47:54.903Z,1.60
2023-03-26T12:51:58.255Z,1.88
2023-03-26T12:57:12.404Z,2.05
2023-03-26T13:02:14.592Z,1.83
2023-03-26T13:07:16.079Z,1.60
2023-03-26T13:12:17.505Z,1.60
2023-03-26T13:17:18.980Z,1.92
2023-03-26T13:22:20.408Z,1.83
2023-03-26T13:27:21.858Z,1.90
2023-03-26T13:32:23.309Z,1.80
2023-03-26T13:37:24.802Z,1.45
2023-03-26T13:42:26.281Z,1.65
2023-03-26T13:47:27.843Z,2.22
2023-03-26T13:52:29.306Z,1.65
2023-03-26T13:57:30.762Z,1.40
2023-03-26T14:02:32.260Z,1.80
2023-03-26T14:07:34.081Z,1.77
2023-03-26T14:12:35.500Z,1.70
2023-03-26T14:17:36.991Z,1.45
2023-03-26T14:22:38.597Z,1.33
2023-03-26T14:27:40.254Z,1.30
2023-03-26T14:32:41.842Z,2.08
2023-03-26T14:37:43.324Z,1.95
2023-03-26T14:42:44.739Z,1.67
2023-03-26T14:47:46.308Z,2.03
2023-03-26T14:52:47.876Z,2.00
2023-03-26T14:57:49.336Z,1.63
2023-03-26T15:02:53.486Z,2.28
2023-03-26T15:07:55.700Z,1.85
2023-03-26T15:12:57.145Z,2.80
2023-03-26T15:17:58.594Z,2.42
2023-03-26T15:23:00.119Z,1.58
2023-03-26T15:28:01.605Z,1.77
2023-03-26T15:33:03.071Z,1.75
2023-03-26T15:38:04.516Z,1.45
2023-03-26T15:43:06.030Z,1.00
2023-03-26T15:48:10.345Z,1.40
2023-03-26T15:53:12.572Z,1.10
2023-03-26T15:58:14.020Z,1.50
2023-03-26T16:03:15.572Z,1.40
2023-03-26T16:08:20.785Z,1.90
2023-03-26T16:13:22.230Z,1.42
2023-03-26T16:18:23.718Z,1.80
2023-03-26T16:23:25.413Z,2.00
2023-03-26T16:28:29.818Z,2.50
2023-03-26T16:33:31.244Z,3.10
2023-03-26T16:38:32.719Z,4.20
2023-03-26T16:43:35.277Z,4.00
2023-03-26T16:48:36.835Z,5.38
2023-03-26T16:53:38.289Z,2.40
2023-03-26T16:58:39.799Z,2.53
2023-03-26T17:03:41.295Z,2.00
2023-03-26T17:08:42.823Z,1.55
2023-03-26T17:13:44.287Z,2.10
2023-03-26T17:18:45.801Z,2.33
2023-03-26T17:23:47.636Z,1.90
2023-03-26T17:28:50.488Z,2.00
2023-03-26T17:33:52.208Z,2.22
2023-03-26T17:38:53.657Z,3.50
2023-03-26T17:43:55.085Z,4.40
2023-03-26T17:48:56.540Z,4.63
2023-03-26T17:53:58.005Z,5.20
2023-03-26T17:58:59.734Z,4.55
2023-03-26T18:04:13.420Z,3.33
2023-03-26T18:09:14.838Z,3.55
2023-03-26T18:14:16.300Z,3.30
2023-03-26T18:19:17.749Z,3.50
2023-03-26T18:24:19.231Z,2.60
2023-03-26T18:29:20.709Z,2.90
2023-03-26T18:34:22.175Z,2.75
2023-03-26T18:39:23.653Z,2.35
2023-03-26T18:44:25.121Z,2.65
2023-03-26T18:49:26.565Z,2.70
2023-03-26T18:54:28.129Z,1.90
2023-03-26T18:59:29.609Z,2.13
2023-03-26T19:04:31.071Z,2.15
2023-03-26T19:09:32.760Z,1.70
2023-03-26T19:14:34.347Z,2.75
2023-03-26T19:19:35.862Z,3.10
2023-03-26T19:24:37.487Z,3.50
2023-03-26T19:29:38.961Z,3.83
2023-03-26T19:34:40.638Z,3.40
2023-03-26T19:39:42.113Z,3.10
2023-03-26T19:44:43.556Z,3.33
2023-03-26T19:49:45.063Z,3.92
2023-03-26T19:54:59.270Z,3.60
2023-03-26T20:00:01.983Z,3.70
2023-03-26T20:05:03.434Z,3.92
2023-03-26T20:10:04.896Z,3.92
2023-03-26T20:15:06.403Z,3.60
2023-03-26T20:20:08.060Z,3.85
2023-03-26T20:25:09.521Z,4.05
2023-03-26T20:30:13.911Z,4.88
2023-03-26T20:35:15.628Z,4.28
2023-03-26T20:40:17.204Z,4.30
2023-03-26T20:45:18.709Z,4.63
2023-03-26T20:50:20.178Z,5.18
2023-03-26T20:55:21.600Z,9.55
2023-03-26T21:00:23.093Z,10.18
2023-03-26T21:05:24.558Z,7.00
2023-03-26T21:10:26.020Z,6.35
2023-03-26T21:15:27.483Z,7.88
2023-03-26T21:20:28.950Z,11.02
2023-03-26T21:25:30.415Z,6.93
2023-03-26T21:30:31.852Z,6.22
2023-03-26T21:35:33.349Z,7.15
2023-03-26T21:40:34.838Z,7.18
2023-03-26T21:45:36.531Z,7.32
2023-03-26T21:50:38.054Z,8.73
2023-03-26T21:55:39.481Z,6.90
2023-03-26T22:00:43.674Z,8.68
2023-03-26T22:05:45.527Z,8.90
2023-03-26T22:10:47.017Z,8.60
2023-03-26T22:15:48.513Z,7.55
2023-03-26T22:20:50.000Z,6.88
2023-03-26T22:25:51.467Z,6.15
2023-03-26T22:30:53.049Z,5.53
2023-03-26T22:35:54.586Z,5.25
2023-03-26T22:40:56.223Z,4.90
2023-03-26T22:45:57.854Z,5.40
2023-03-26T22:50:59.367Z,5.55
2023-03-26T22:56:00.851Z,5.60
2023-03-26T23:01:02.306Z,5.80
2023-03-26T23:06:03.747Z,5.43
2023-03-26T23:11:05.184Z,6.05
2023-03-26T23:16:06.707Z,7.25
2023-03-26T23:21:12.038Z,7.57
2023-03-26T23:26:13.736Z,7.00
2023-03-26T23:31:15.252Z,6.32
2023-03-26T23:36:16.746Z,4.85
2023-03-26T23:41:18.223Z,5.95
2023-03-26T23:46:19.662Z,5.75
2023-03-26T23:51:21.094Z,5.38
2023-03-26T23:56:22.544Z,6.15
